Oran Tafraoui Airport

DAOL · Oran, 阿尔及利亚

罗盘
风向 的 风向 270° Oran Tafraoui Airport 8/26
风: 18 kt, 5 beaufort

17 kt

5 kt
改变
0 ft 2.000 4.000 6.000 8.000 10.000
Cloud Cloud Cloud Cloud
SCT 2.600
Cloud Cloud Cloud Cloud
SCT 10.000
METAR DAOL 191100Z 27018KT 9999 SCT026 SCT100 26/13 Q1016

METAR Oran Tafraoui Airport - DAOL/TAF

Oran Tafraoui Airport是,阿尔及利亚中的中型机场。 该机场位于纬度35,54240和经度-0,53228。 该机场有一条跑道: 8/26. 本场的ICAO机场代码为DAOL。 该机场的IATA代码为TAF。 机场在Alger FIR中。

该航空气象观测是针对Oran Tafraoui Airport在2024年6月19日 12:00, 当地时间进行的。

机场观察

风向为270°,速度为18 kt。

可见度为10 km 或者更多。

有疏云,零星散落的云朵在2.600 ft的高度 和 疏云,零星散落的云朵在10.000 ft的高度。 没有观察到天花板。

温度和风寒是26 °C。 露点为13 °C,相对湿度为45%。 海平面上的气压为1016 hPa (QNH)。

白天

今天,太阳从05:46升起,在20:20降落。 这适用于Oran Tafraoui Airport,世界夏令时可能有所不同。 当地时间与世界标准时间之间的时差为+1 小时。 夏令时目前正在进行中。

公司介绍

我们没有关于这个机场的公司信息。

体会

到Vliegles.nl去找飞行课程,跳伞和其他飞行体验。 浏览页面,了解Oran Tafraoui Airport附近所有可用的活动。 你也可以使用搜索功能来寻找你所在地附近的特定飞行课程、跳伞或其他飞行体验。

跑道

Id 标题 侧风 逆风 侧风 %
8/26 075°-255° 5 kt 17 kt 26 %

逆风成分最大的方向会被突出显示,并用于横风计算。 这并不一定意味着这个方向在使用。

乌云

2.600 ft SCT 疏云,零星散落的云朵
10.000 ft SCT 疏云,零星散落的云朵

温度 & 天气

温度 26 °C
露点 13 °C
相对湿度 45%
Kp-index 2 (0-9)

白天

日出
05:46
中午
13:03
日落
20:20 (7:44)

小工具

你想在你的网站上有一个关于Oran Tafraoui Airport的当前航空天气(METAR)的小部件吗?

显示HTML代码
报告变更